sensor_id;sensor_type;location;lat;lon;timestamp;P1;durP1;ratioP1;P2;durP2;ratioP2
78372;SDS011;67656;52.074;4.758;2023-05-21T00:01:43;8.30;;;3.40;;
78372;SDS011;67656;52.074;4.758;2023-05-21T00:06:43;6.78;;;3.42;;
78372;SDS011;67656;52.074;4.758;2023-05-21T00:11:44;6.80;;;3.33;;
78372;SDS011;67656;52.074;4.758;2023-05-21T00:16:44;4.40;;;3.03;;
78372;SDS011;67656;52.074;4.758;2023-05-21T00:21:45;5.93;;;3.42;;
78372;SDS011;67656;52.074;4.758;2023-05-21T00:26:45;6.00;;;3.10;;
78372;SDS011;67656;52.074;4.758;2023-05-21T00:31:45;5.10;;;3.13;;
78372;SDS011;67656;52.074;4.758;2023-05-21T00:36:46;7.18;;;3.70;;
78372;SDS011;67656;52.074;4.758;2023-05-21T00:41:46;5.22;;;3.40;;
78372;SDS011;67656;52.074;4.758;2023-05-21T00:46:47;6.88;;;3.30;;
78372;SDS011;67656;52.074;4.758;2023-05-21T00:51:48;6.28;;;3.50;;
78372;SDS011;67656;52.074;4.758;2023-05-21T00:56:49;5.60;;;3.60;;
78372;SDS011;67656;52.074;4.758;2023-05-21T01:01:51;5.28;;;3.20;;
78372;SDS011;67656;52.074;4.758;2023-05-21T01:06:51;5.75;;;3.35;;
78372;SDS011;67656;52.074;4.758;2023-05-21T01:11:52;5.28;;;3.15;;
78372;SDS011;67656;52.074;4.758;2023-05-21T01:16:54;6.05;;;3.60;;
78372;SDS011;67656;52.074;4.758;2023-05-21T01:21:55;7.57;;;3.60;;
78372;SDS011;67656;52.074;4.758;2023-05-21T01:27:00;5.97;;;2.90;;
78372;SDS011;67656;52.074;4.758;2023-05-21T01:37:15;5.82;;;3.50;;
78372;SDS011;67656;52.074;4.758;2023-05-21T01:42:21;9.40;;;3.60;;
78372;SDS011;67656;52.074;4.758;2023-05-21T01:47:22;5.88;;;3.13;;
78372;SDS011;67656;52.074;4.758;2023-05-21T01:52:25;5.00;;;3.30;;
78372;SDS011;67656;52.074;4.758;2023-05-21T01:57:28;5.53;;;3.13;;
78372;SDS011;67656;52.074;4.758;2023-05-21T02:02:28;6.15;;;3.30;;
78372;SDS011;67656;52.074;4.758;2023-05-21T02:07:28;5.97;;;3.28;;
78372;SDS011;67656;52.074;4.758;2023-05-21T02:12:29;6.85;;;3.45;;
78372;SDS011;67656;52.074;4.758;2023-05-21T02:17:29;5.45;;;3.20;;
78372;SDS011;67656;52.074;4.758;2023-05-21T02:22:30;5.78;;;3.35;;
78372;SDS011;67656;52.074;4.758;2023-05-21T02:27:30;4.75;;;3.53;;
78372;SDS011;67656;52.074;4.758;2023-05-21T02:32:31;7.25;;;3.40;;
78372;SDS011;67656;52.074;4.758;2023-05-21T02:37:31;7.57;;;3.38;;
78372;SDS011;67656;52.074;4.758;2023-05-21T02:42:32;5.43;;;3.38;;
78372;SDS011;67656;52.074;4.758;2023-05-21T02:47:33;5.05;;;3.13;;
78372;SDS011;67656;52.074;4.758;2023-05-21T02:52:34;8.35;;;3.63;;
78372;SDS011;67656;52.074;4.758;2023-05-21T02:57:36;7.35;;;3.50;;
78372;SDS011;67656;52.074;4.758;2023-05-21T03:02:37;7.30;;;4.20;;
78372;SDS011;67656;52.074;4.758;2023-05-21T03:07:37;5.80;;;3.88;;
78372;SDS011;67656;52.074;4.758;2023-05-21T03:12:38;7.20;;;3.80;;
78372;SDS011;67656;52.074;4.758;2023-05-21T03:17:39;6.20;;;3.70;;
78372;SDS011;67656;52.074;4.758;2023-05-21T03:22:39;7.85;;;3.70;;
78372;SDS011;67656;52.074;4.758;2023-05-21T03:27:40;5.82;;;3.35;;
78372;SDS011;67656;52.074;4.758;2023-05-21T03:32:56;6.55;;;3.47;;
78372;SDS011;67656;52.074;4.758;2023-05-21T03:37:57;6.95;;;4.25;;
78372;SDS011;67656;52.074;4.758;2023-05-21T03:42:57;8.57;;;3.50;;
78372;SDS011;67656;52.074;4.758;2023-05-21T03:47:58;10.32;;;3.67;;
78372;SDS011;67656;52.074;4.758;2023-05-21T03:52:59;7.22;;;4.00;;
78372;SDS011;67656;52.074;4.758;2023-05-21T03:58:00;6.55;;;3.60;;
78372;SDS011;67656;52.074;4.758;2023-05-21T04:03:00;6.53;;;3.80;;
78372;SDS011;67656;52.074;4.758;2023-05-21T04:08:01;6.93;;;3.75;;
78372;SDS011;67656;52.074;4.758;2023-05-21T04:13:02;7.45;;;3.50;;
78372;SDS011;67656;52.074;4.758;2023-05-21T04:18:03;6.50;;;4.00;;
78372;SDS011;67656;52.074;4.758;2023-05-21T04:23:03;8.68;;;3.85;;
78372;SDS011;67656;52.074;4.758;2023-05-21T04:28:04;7.22;;;3.90;;
78372;SDS011;67656;52.074;4.758;2023-05-21T04:33:05;5.28;;;3.67;;
78372;SDS011;67656;52.074;4.758;2023-05-21T04:38:08;6.95;;;3.95;;
78372;SDS011;67656;52.074;4.758;2023-05-21T04:43:08;8.02;;;4.30;;
78372;SDS011;67656;52.074;4.758;2023-05-21T04:48:09;6.40;;;4.30;;
78372;SDS011;67656;52.074;4.758;2023-05-21T04:53:09;7.32;;;3.90;;
78372;SDS011;67656;52.074;4.758;2023-05-21T04:58:09;8.13;;;4.03;;
78372;SDS011;67656;52.074;4.758;2023-05-21T05:03:10;7.13;;;3.90;;
78372;SDS011;67656;52.074;4.758;2023-05-21T05:08:11;7.22;;;3.78;;
78372;SDS011;67656;52.074;4.758;2023-05-21T05:13:11;9.30;;;4.65;;
78372;SDS011;67656;52.074;4.758;2023-05-21T05:18:12;6.80;;;4.22;;
78372;SDS011;67656;52.074;4.758;2023-05-21T05:23:14;7.53;;;4.13;;
78372;SDS011;67656;52.074;4.758;2023-05-21T05:28:14;7.65;;;3.72;;
78372;SDS011;67656;52.074;4.758;2023-05-21T05:33:16;7.53;;;4.20;;
78372;SDS011;67656;52.074;4.758;2023-05-21T05:38:17;6.30;;;4.00;;
78372;SDS011;67656;52.074;4.758;2023-05-21T05:43:17;6.60;;;3.90;;
78372;SDS011;67656;52.074;4.758;2023-05-21T05:48:18;7.95;;;4.10;;
78372;SDS011;67656;52.074;4.758;2023-05-21T05:53:19;6.57;;;3.80;;
78372;SDS011;67656;52.074;4.758;2023-05-21T05:58:20;7.97;;;4.18;;
78372;SDS011;67656;52.074;4.758;2023-05-21T06:03:43;8.03;;;4.50;;
78372;SDS011;67656;52.074;4.758;2023-05-21T06:08:53;8.07;;;4.30;;
78372;SDS011;67656;52.074;4.758;2023-05-21T06:13:53;10.07;;;4.53;;
78372;SDS011;67656;52.074;4.758;2023-05-21T06:18:55;7.35;;;4.28;;
78372;SDS011;67656;52.074;4.758;2023-05-21T06:23:55;8.68;;;4.30;;
78372;SDS011;67656;52.074;4.758;2023-05-21T06:28:56;6.32;;;4.35;;
78372;SDS011;67656;52.074;4.758;2023-05-21T06:33:57;9.45;;;4.20;;
78372;SDS011;67656;52.074;4.758;2023-05-21T06:38:59;9.07;;;4.35;;
78372;SDS011;67656;52.074;4.758;2023-05-21T06:43:59;8.38;;;4.90;;
78372;SDS011;67656;52.074;4.758;2023-05-21T06:49:12;10.10;;;4.72;;
78372;SDS011;67656;52.074;4.758;2023-05-21T06:54:13;9.05;;;4.63;;
78372;SDS011;67656;52.074;4.758;2023-05-21T06:59:14;6.75;;;4.35;;
78372;SDS011;67656;52.074;4.758;2023-05-21T07:04:16;7.50;;;4.10;;
78372;SDS011;67656;52.074;4.758;2023-05-21T07:09:17;7.95;;;4.25;;
78372;SDS011;67656;52.074;4.758;2023-05-21T07:14:19;8.75;;;4.38;;
78372;SDS011;67656;52.074;4.758;2023-05-21T07:19:20;8.57;;;4.70;;
78372;SDS011;67656;52.074;4.758;2023-05-21T07:24:22;6.70;;;3.85;;
78372;SDS011;67656;52.074;4.758;2023-05-21T07:29:23;7.82;;;4.40;;
78372;SDS011;67656;52.074;4.758;2023-05-21T07:34:28;8.77;;;4.40;;
78372;SDS011;67656;52.074;4.758;2023-05-21T07:39:29;7.45;;;4.30;;
78372;SDS011;67656;52.074;4.758;2023-05-21T07:44:30;8.52;;;4.10;;
78372;SDS011;67656;52.074;4.758;2023-05-21T07:49:30;7.72;;;4.70;;
78372;SDS011;67656;52.074;4.758;2023-05-21T07:54:31;8.30;;;4.65;;
78372;SDS011;67656;52.074;4.758;2023-05-21T07:59:32;8.05;;;5.00;;
78372;SDS011;67656;52.074;4.758;2023-05-21T08:04:34;8.05;;;4.28;;
78372;SDS011;67656;52.074;4.758;2023-05-21T08:09:35;7.53;;;4.22;;
78372;SDS011;67656;52.074;4.758;2023-05-21T08:14:36;6.68;;;4.20;;
78372;SDS011;67656;52.074;4.758;2023-05-21T08:19:36;8.73;;;4.28;;
78372;SDS011;67656;52.074;4.758;2023-05-21T08:24:38;7.07;;;4.50;;
78372;SDS011;67656;52.074;4.758;2023-05-21T08:29:38;6.88;;;4.00;;
78372;SDS011;67656;52.074;4.758;2023-05-21T08:34:39;9.60;;;4.45;;
78372;SDS011;67656;52.074;4.758;2023-05-21T08:39:57;7.57;;;4.32;;
78372;SDS011;67656;52.074;4.758;2023-05-21T08:44:59;7.93;;;4.30;;
78372;SDS011;67656;52.074;4.758;2023-05-21T08:50:01;8.52;;;4.53;;
78372;SDS011;67656;52.074;4.758;2023-05-21T08:55:03;8.13;;;4.20;;
78372;SDS011;67656;52.074;4.758;2023-05-21T09:00:05;9.68;;;4.50;;
78372;SDS011;67656;52.074;4.758;2023-05-21T09:05:07;8.55;;;4.22;;
78372;SDS011;67656;52.074;4.758;2023-05-21T09:10:11;8.05;;;4.28;;
78372;SDS011;67656;52.074;4.758;2023-05-21T09:15:13;9.38;;;4.70;;
78372;SDS011;67656;52.074;4.758;2023-05-21T09:20:14;9.07;;;4.10;;
78372;SDS011;67656;52.074;4.758;2023-05-21T09:25:26;6.82;;;3.85;;
78372;SDS011;67656;52.074;4.758;2023-05-21T09:30:27;7.78;;;4.72;;
78372;SDS011;67656;52.074;4.758;2023-05-21T09:35:27;6.57;;;3.58;;
78372;SDS011;67656;52.074;4.758;2023-05-21T09:40:28;6.90;;;3.70;;
78372;SDS011;67656;52.074;4.758;2023-05-21T09:45:29;8.27;;;4.00;;
78372;SDS011;67656;52.074;4.758;2023-05-21T09:50:34;7.18;;;3.42;;
78372;SDS011;67656;52.074;4.758;2023-05-21T09:55:35;6.88;;;3.60;;
78372;SDS011;67656;52.074;4.758;2023-05-21T10:00:35;7.10;;;3.75;;
78372;SDS011;67656;52.074;4.758;2023-05-21T10:05:35;9.93;;;3.85;;
78372;SDS011;67656;52.074;4.758;2023-05-21T10:10:36;7.38;;;3.97;;
78372;SDS011;67656;52.074;4.758;2023-05-21T10:20:44;8.15;;;3.90;;
78372;SDS011;67656;52.074;4.758;2023-05-21T10:25:45;6.53;;;4.10;;
78372;SDS011;67656;52.074;4.758;2023-05-21T10:30:46;9.75;;;4.50;;
78372;SDS011;67656;52.074;4.758;2023-05-21T10:35:47;8.18;;;4.20;;
78372;SDS011;67656;52.074;4.758;2023-05-21T10:40:50;5.95;;;3.80;;
78372;SDS011;67656;52.074;4.758;2023-05-21T10:51:25;9.43;;;4.22;;
78372;SDS011;67656;52.074;4.758;2023-05-21T10:56:40;6.90;;;3.80;;
78372;SDS011;67656;52.074;4.758;2023-05-21T11:01:45;7.43;;;3.47;;
78372;SDS011;67656;52.074;4.758;2023-05-21T11:06:47;8.07;;;4.03;;
78372;SDS011;67656;52.074;4.758;2023-05-21T11:11:51;8.65;;;4.10;;
78372;SDS011;67656;52.074;4.758;2023-05-21T11:16:56;6.63;;;4.35;;
78372;SDS011;67656;52.074;4.758;2023-05-21T11:22:01;8.10;;;4.53;;
78372;SDS011;67656;52.074;4.758;2023-05-21T11:27:05;9.48;;;4.88;;
78372;SDS011;67656;52.074;4.758;2023-05-21T11:32:09;11.52;;;4.68;;
78372;SDS011;67656;52.074;4.758;2023-05-21T11:42:31;7.50;;;4.35;;
78372;SDS011;67656;52.074;4.758;2023-05-21T11:47:32;10.27;;;4.60;;
78372;SDS011;67656;52.074;4.758;2023-05-21T11:52:32;9.55;;;4.45;;
78372;SDS011;67656;52.074;4.758;2023-05-21T11:57:33;10.27;;;4.83;;
78372;SDS011;67656;52.074;4.758;2023-05-21T12:02:33;8.63;;;5.03;;
78372;SDS011;67656;52.074;4.758;2023-05-21T12:07:33;7.22;;;4.50;;
78372;SDS011;67656;52.074;4.758;2023-05-21T12:12:34;7.63;;;4.68;;
78372;SDS011;67656;52.074;4.758;2023-05-21T12:17:34;7.95;;;4.60;;
78372;SDS011;67656;52.074;4.758;2023-05-21T12:22:39;9.82;;;4.97;;
78372;SDS011;67656;52.074;4.758;2023-05-21T12:27:40;9.52;;;4.80;;
78372;SDS011;67656;52.074;4.758;2023-05-21T12:32:41;9.48;;;5.22;;
78372;SDS011;67656;52.074;4.758;2023-05-21T12:37:42;9.82;;;5.05;;
78372;SDS011;67656;52.074;4.758;2023-05-21T12:42:42;10.25;;;5.00;;
78372;SDS011;67656;52.074;4.758;2023-05-21T12:47:45;8.43;;;4.80;;
78372;SDS011;67656;52.074;4.758;2023-05-21T12:52:47;9.55;;;4.53;;
78372;SDS011;67656;52.074;4.758;2023-05-21T12:57:47;8.85;;;4.57;;
78372;SDS011;67656;52.074;4.758;2023-05-21T13:02:48;9.80;;;4.60;;
78372;SDS011;67656;52.074;4.758;2023-05-21T13:07:50;9.70;;;4.90;;
78372;SDS011;67656;52.074;4.758;2023-05-21T13:12:50;9.40;;;4.32;;
78372;SDS011;67656;52.074;4.758;2023-05-21T13:17:51;10.30;;;4.68;;
78372;SDS011;67656;52.074;4.758;2023-05-21T13:22:51;7.63;;;4.82;;
78372;SDS011;67656;52.074;4.758;2023-05-21T13:27:52;9.95;;;4.65;;
78372;SDS011;67656;52.074;4.758;2023-05-21T13:32:53;9.75;;;5.95;;
78372;SDS011;67656;52.074;4.758;2023-05-21T13:37:53;11.05;;;4.80;;
78372;SDS011;67656;52.074;4.758;2023-05-21T13:42:54;8.05;;;4.85;;
78372;SDS011;67656;52.074;4.758;2023-05-21T13:47:54;10.65;;;5.13;;
78372;SDS011;67656;52.074;4.758;2023-05-21T13:52:55;9.55;;;5.22;;
78372;SDS011;67656;52.074;4.758;2023-05-21T13:57:55;12.38;;;5.70;;
78372;SDS011;67656;52.074;4.758;2023-05-21T14:02:55;9.02;;;5.15;;
78372;SDS011;67656;52.074;4.758;2023-05-21T14:07:56;7.30;;;4.40;;
78372;SDS011;67656;52.074;4.758;2023-05-21T14:12:56;9.38;;;5.03;;
78372;SDS011;67656;52.074;4.758;2023-05-21T14:17:58;8.30;;;5.10;;
78372;SDS011;67656;52.074;4.758;2023-05-21T14:22:58;8.27;;;5.35;;
78372;SDS011;67656;52.074;4.758;2023-05-21T14:27:59;10.55;;;5.47;;
78372;SDS011;67656;52.074;4.758;2023-05-21T14:32:59;7.77;;;4.30;;
78372;SDS011;67656;52.074;4.758;2023-05-21T14:38:00;8.15;;;4.88;;
78372;SDS011;67656;52.074;4.758;2023-05-21T14:43:00;8.95;;;5.05;;
78372;SDS011;67656;52.074;4.758;2023-05-21T14:48:01;10.10;;;4.82;;
78372;SDS011;67656;52.074;4.758;2023-05-21T14:53:05;9.15;;;5.05;;
78372;SDS011;67656;52.074;4.758;2023-05-21T14:58:06;9.88;;;5.30;;
78372;SDS011;67656;52.074;4.758;2023-05-21T15:03:07;10.82;;;4.70;;
78372;SDS011;67656;52.074;4.758;2023-05-21T15:08:07;11.43;;;4.63;;
78372;SDS011;67656;52.074;4.758;2023-05-21T15:13:08;8.23;;;4.82;;
78372;SDS011;67656;52.074;4.758;2023-05-21T15:18:08;9.10;;;4.78;;
78372;SDS011;67656;52.074;4.758;2023-05-21T15:23:08;8.60;;;4.57;;
78372;SDS011;67656;52.074;4.758;2023-05-21T15:28:09;12.25;;;5.50;;
78372;SDS011;67656;52.074;4.758;2023-05-21T15:33:10;9.60;;;4.63;;
78372;SDS011;67656;52.074;4.758;2023-05-21T15:38:10;9.90;;;4.20;;
78372;SDS011;67656;52.074;4.758;2023-05-21T15:43:10;7.68;;;4.70;;
78372;SDS011;67656;52.074;4.758;2023-05-21T15:48:11;7.43;;;4.22;;
78372;SDS011;67656;52.074;4.758;2023-05-21T15:53:11;10.73;;;4.72;;
78372;SDS011;67656;52.074;4.758;2023-05-21T15:58:12;8.18;;;4.72;;
78372;SDS011;67656;52.074;4.758;2023-05-21T16:03:12;7.93;;;4.50;;
78372;SDS011;67656;52.074;4.758;2023-05-21T16:08:12;9.80;;;4.70;;
78372;SDS011;67656;52.074;4.758;2023-05-21T16:13:13;11.05;;;5.30;;
78372;SDS011;67656;52.074;4.758;2023-05-21T16:18:13;9.48;;;4.88;;
78372;SDS011;67656;52.074;4.758;2023-05-21T16:23:14;9.10;;;4.63;;
78372;SDS011;67656;52.074;4.758;2023-05-21T16:28:14;10.15;;;4.90;;
78372;SDS011;67656;52.074;4.758;2023-05-21T16:33:14;9.05;;;4.72;;
78372;SDS011;67656;52.074;4.758;2023-05-21T16:38:15;11.50;;;4.97;;
78372;SDS011;67656;52.074;4.758;2023-05-21T16:43:15;9.45;;;5.00;;
78372;SDS011;67656;52.074;4.758;2023-05-21T16:48:16;10.30;;;5.00;;
78372;SDS011;67656;52.074;4.758;2023-05-21T16:53:16;9.57;;;4.40;;
78372;SDS011;67656;52.074;4.758;2023-05-21T16:58:17;9.02;;;4.32;;
78372;SDS011;67656;52.074;4.758;2023-05-21T17:03:17;10.02;;;4.35;;
78372;SDS011;67656;52.074;4.758;2023-05-21T17:08:18;8.57;;;4.50;;
78372;SDS011;67656;52.074;4.758;2023-05-21T17:13:18;9.68;;;4.75;;
78372;SDS011;67656;52.074;4.758;2023-05-21T17:18:18;12.07;;;4.60;;
78372;SDS011;67656;52.074;4.758;2023-05-21T17:23:19;10.05;;;4.60;;
78372;SDS011;67656;52.074;4.758;2023-05-21T17:28:19;7.93;;;4.70;;
78372;SDS011;67656;52.074;4.758;2023-05-21T17:33:35;8.32;;;4.88;;
78372;SDS011;67656;52.074;4.758;2023-05-21T17:38:36;7.82;;;4.15;;
78372;SDS011;67656;52.074;4.758;2023-05-21T17:43:36;8.15;;;4.10;;
78372;SDS011;67656;52.074;4.758;2023-05-21T17:48:37;10.13;;;4.68;;
78372;SDS011;67656;52.074;4.758;2023-05-21T17:53:38;8.73;;;4.43;;
78372;SDS011;67656;52.074;4.758;2023-05-21T17:58:39;7.72;;;4.00;;
78372;SDS011;67656;52.074;4.758;2023-05-21T18:03:39;8.32;;;4.25;;
78372;SDS011;67656;52.074;4.758;2023-05-21T18:08:40;8.00;;;4.60;;
78372;SDS011;67656;52.074;4.758;2023-05-21T18:13:40;11.18;;;5.07;;
78372;SDS011;67656;52.074;4.758;2023-05-21T18:18:41;9.50;;;4.78;;
78372;SDS011;67656;52.074;4.758;2023-05-21T18:23:42;12.55;;;4.80;;
78372;SDS011;67656;52.074;4.758;2023-05-21T18:28:42;11.27;;;4.65;;
78372;SDS011;67656;52.074;4.758;2023-05-21T18:33:42;10.18;;;5.05;;
78372;SDS011;67656;52.074;4.758;2023-05-21T18:38:43;8.98;;;4.72;;
78372;SDS011;67656;52.074;4.758;2023-05-21T18:43:43;7.85;;;4.80;;
78372;SDS011;67656;52.074;4.758;2023-05-21T18:48:44;12.88;;;5.35;;
78372;SDS011;67656;52.074;4.758;2023-05-21T18:53:44;11.98;;;5.05;;
78372;SDS011;67656;52.074;4.758;2023-05-21T18:58:44;11.73;;;5.50;;
78372;SDS011;67656;52.074;4.758;2023-05-21T19:03:45;10.38;;;5.75;;
78372;SDS011;67656;52.074;4.758;2023-05-21T19:08:45;13.65;;;5.50;;
78372;SDS011;67656;52.074;4.758;2023-05-21T19:13:46;15.07;;;5.20;;
78372;SDS011;67656;52.074;4.758;2023-05-21T19:18:46;8.93;;;3.72;;
78372;SDS011;67656;52.074;4.758;2023-05-21T19:23:46;12.57;;;3.97;;
78372;SDS011;67656;52.074;4.758;2023-05-21T19:28:47;13.73;;;4.18;;
78372;SDS011;67656;52.074;4.758;2023-05-21T19:33:47;12.20;;;4.70;;
78372;SDS011;67656;52.074;4.758;2023-05-21T19:38:48;13.02;;;4.35;;
78372;SDS011;67656;52.074;4.758;2023-05-21T19:43:49;9.52;;;4.10;;
78372;SDS011;67656;52.074;4.758;2023-05-21T19:48:49;14.57;;;4.78;;
78372;SDS011;67656;52.074;4.758;2023-05-21T19:53:50;9.95;;;4.03;;
78372;SDS011;67656;52.074;4.758;2023-05-21T19:58:50;12.13;;;4.40;;
78372;SDS011;67656;52.074;4.758;2023-05-21T20:03:51;14.93;;;4.88;;
78372;SDS011;67656;52.074;4.758;2023-05-21T20:08:58;15.02;;;5.20;;
78372;SDS011;67656;52.074;4.758;2023-05-21T20:20:38;11.57;;;4.80;;
78372;SDS011;67656;52.074;4.758;2023-05-21T20:26:22;12.13;;;5.03;;
78372;SDS011;67656;52.074;4.758;2023-05-21T20:38:35;12.27;;;6.22;;
78372;SDS011;67656;52.074;4.758;2023-05-21T20:43:54;14.73;;;6.40;;
78372;SDS011;67656;52.074;4.758;2023-05-21T20:48:55;15.35;;;6.47;;
78372;SDS011;67656;52.074;4.758;2023-05-21T20:53:55;16.50;;;5.63;;
78372;SDS011;67656;52.074;4.758;2023-05-21T21:04:00;15.27;;;6.25;;
78372;SDS011;67656;52.074;4.758;2023-05-21T21:09:00;15.93;;;6.47;;
78372;SDS011;67656;52.074;4.758;2023-05-21T21:14:01;13.90;;;6.38;;
78372;SDS011;67656;52.074;4.758;2023-05-21T21:19:01;18.80;;;7.72;;
78372;SDS011;67656;52.074;4.758;2023-05-21T21:24:02;16.33;;;7.07;;
78372;SDS011;67656;52.074;4.758;2023-05-21T21:29:03;18.95;;;8.38;;
78372;SDS011;67656;52.074;4.758;2023-05-21T21:34:06;19.25;;;8.18;;
78372;SDS011;67656;52.074;4.758;2023-05-21T21:39:06;24.23;;;8.60;;
78372;SDS011;67656;52.074;4.758;2023-05-21T21:44:12;20.58;;;8.75;;
78372;SDS011;67656;52.074;4.758;2023-05-21T21:49:13;22.30;;;8.60;;
78372;SDS011;67656;52.074;4.758;2023-05-21T21:54:14;25.38;;;9.00;;
78372;SDS011;67656;52.074;4.758;2023-05-21T21:59:15;24.27;;;9.57;;
78372;SDS011;67656;52.074;4.758;2023-05-21T22:04:15;21.42;;;9.68;;
78372;SDS011;67656;52.074;4.758;2023-05-21T22:09:18;27.42;;;9.80;;
78372;SDS011;67656;52.074;4.758;2023-05-21T22:14:19;20.98;;;9.40;;
78372;SDS011;67656;52.074;4.758;2023-05-21T22:19:19;21.25;;;8.88;;
78372;SDS011;67656;52.074;4.758;2023-05-21T22:24:20;22.15;;;9.38;;
78372;SDS011;67656;52.074;4.758;2023-05-21T22:29:20;25.10;;;10.02;;
78372;SDS011;67656;52.074;4.758;2023-05-21T22:34:21;25.83;;;9.95;;
78372;SDS011;67656;52.074;4.758;2023-05-21T22:39:21;26.25;;;10.10;;
78372;SDS011;67656;52.074;4.758;2023-05-21T22:44:22;24.52;;;9.80;;
78372;SDS011;67656;52.074;4.758;2023-05-21T22:49:24;25.05;;;9.98;;
78372;SDS011;67656;52.074;4.758;2023-05-21T22:54:25;27.35;;;10.95;;
78372;SDS011;67656;52.074;4.758;2023-05-21T22:59:25;23.30;;;10.52;;
78372;SDS011;67656;52.074;4.758;2023-05-21T23:04:29;24.30;;;11.00;;
78372;SDS011;67656;52.074;4.758;2023-05-21T23:09:30;24.15;;;11.10;;
78372;SDS011;67656;52.074;4.758;2023-05-21T23:14:31;24.50;;;10.40;;
78372;SDS011;67656;52.074;4.758;2023-05-21T23:19:31;25.00;;;11.00;;
78372;SDS011;67656;52.074;4.758;2023-05-21T23:24:32;27.70;;;11.18;;
78372;SDS011;67656;52.074;4.758;2023-05-21T23:29:32;27.15;;;11.57;;
78372;SDS011;67656;52.074;4.758;2023-05-21T23:34:42;24.63;;;10.80;;
78372;SDS011;67656;52.074;4.758;2023-05-21T23:39:46;31.15;;;11.27;;
78372;SDS011;67656;52.074;4.758;2023-05-21T23:44:46;25.45;;;11.80;;
78372;SDS011;67656;52.074;4.758;2023-05-21T23:49:47;27.63;;;12.00;;
78372;SDS011;67656;52.074;4.758;2023-05-21T23:54:51;27.13;;;11.95;;
78372;SDS011;67656;52.074;4.758;2023-05-21T23:59:51;28.50;;;12.30;;
